createdAt,value
2022-08-18T00:04:34.829Z,7.77
2022-08-18T00:09:37.534Z,8.13
2022-08-18T00:14:39.531Z,7.77
2022-08-18T00:19:47.530Z,7.90
2022-08-18T00:24:56.818Z,8.33
2022-08-18T00:30:02.961Z,7.63
2022-08-18T00:35:29.389Z,7.60
2022-08-18T00:40:44.649Z,7.70
2022-08-18T00:45:47.718Z,7.43
2022-08-18T00:50:59.495Z,8.03
2022-08-18T00:56:11.585Z,7.03
2022-08-18T01:01:15.919Z,7.20
2022-08-18T01:06:39.441Z,7.37
2022-08-18T01:11:41.453Z,7.27
2022-08-18T01:17:03.355Z,7.73
2022-08-18T01:22:38.728Z,7.07
2022-08-18T01:27:41.894Z,7.57
2022-08-18T01:32:47.136Z,7.03
2022-08-18T01:37:49.445Z,6.63
2022-08-18T01:42:51.165Z,6.90
2022-08-18T01:47:52.870Z,7.17
2022-08-18T01:52:54.559Z,7.37
2022-08-18T01:57:56.397Z,6.83
2022-08-18T02:03:02.871Z,8.00
2022-08-18T02:08:06.745Z,6.77
2022-08-18T02:13:09.882Z,6.93
2022-08-18T02:18:46.877Z,7.03
2022-08-18T02:23:52.787Z,6.70
2022-08-18T02:28:55.814Z,7.40
2022-08-18T02:33:57.666Z,7.77
2022-08-18T02:39:00.212Z,8.63
2022-08-18T02:44:02.730Z,7.13
2022-08-18T02:49:08.001Z,6.57
2022-08-18T02:54:11.449Z,7.53
2022-08-18T02:59:21.517Z,7.90
2022-08-18T03:04:30.033Z,8.33
2022-08-18T03:09:34.428Z,8.00
2022-08-18T03:14:39.894Z,7.57
2022-08-18T03:19:44.921Z,9.40
2022-08-18T03:24:49.579Z,8.10
2022-08-18T03:29:51.397Z,7.37
2022-08-18T03:34:53.154Z,8.27
2022-08-18T03:39:55.035Z,7.60
2022-08-18T03:44:56.790Z,8.00
2022-08-18T03:49:59.388Z,8.37
2022-08-18T03:55:02.819Z,8.40
2022-08-18T04:00:06.321Z,7.53
2022-08-18T04:05:11.065Z,8.20
2022-08-18T04:10:17.033Z,7.60
2022-08-18T04:15:21.479Z,8.00
2022-08-18T04:20:24.336Z,9.17
2022-08-18T04:25:32.173Z,8.60
2022-08-18T04:30:34.487Z,8.10
2022-08-18T04:35:36.215Z,7.70
2022-08-18T04:40:37.941Z,8.43
2022-08-18T04:45:40.097Z,9.10
2022-08-18T04:50:42.835Z,8.00
2022-08-18T04:55:53.922Z,9.03
2022-08-18T05:01:01.938Z,7.53
2022-08-18T05:06:07.223Z,8.10
2022-08-18T05:11:09.979Z,8.33
2022-08-18T05:16:16.682Z,9.43
2022-08-18T05:21:23.721Z,8.00
2022-08-18T05:26:26.649Z,9.60
2022-08-18T05:31:29.937Z,8.73
2022-08-18T05:36:52.702Z,7.90
2022-08-18T05:42:17.630Z,9.77
2022-08-18T05:47:37.484Z,9.60
2022-08-18T05:53:14.629Z,9.40
2022-08-18T05:58:33.887Z,10.43
2022-08-18T06:03:49.774Z,10.00
2022-08-18T06:09:14.149Z,10.20
2022-08-18T06:14:16.237Z,10.50
2022-08-18T06:20:01.975Z,9.53
2022-08-18T06:25:23.333Z,9.57
2022-08-18T06:30:55.223Z,9.13
2022-08-18T06:36:27.338Z,9.77
2022-08-18T06:41:51.123Z,9.90
2022-08-18T06:47:17.970Z,10.27
2022-08-18T06:52:55.096Z,11.13
2022-08-18T06:58:03.382Z,9.63
2022-08-18T07:03:18.427Z,9.60
2022-08-18T07:08:40.122Z,9.83
2022-08-18T07:13:44.593Z,9.13
2022-08-18T07:18:46.954Z,9.47
2022-08-18T07:24:24.465Z,9.10
2022-08-18T07:29:29.864Z,10.37
2022-08-18T07:34:47.906Z,9.50
2022-08-18T07:40:23.743Z,9.27
2022-08-18T07:45:47.183Z,10.37
2022-08-18T07:51:18.229Z,8.80
2022-08-18T07:56:42.959Z,10.53
2022-08-18T08:02:21.978Z,9.20
2022-08-18T08:08:01.054Z,10.60
2022-08-18T08:13:51.754Z,9.90
2022-08-18T08:19:56.777Z,10.30
2022-08-18T08:25:45.043Z,10.13
2022-08-18T08:31:38.223Z,10.80
2022-08-18T08:36:45.883Z,9.57
2022-08-18T08:42:30.176Z,10.73
2022-08-18T08:47:38.865Z,9.93
2022-08-18T08:52:59.886Z,11.03
2022-08-18T08:58:26.718Z,10.67
2022-08-18T09:03:53.096Z,11.40
2022-08-18T09:09:44.936Z,12.07
2022-08-18T09:15:34.556Z,12.90
2022-08-18T09:21:30.696Z,12.30
2022-08-18T09:26:39.076Z,10.77
2022-08-18T09:31:44.097Z,11.47
2022-08-18T09:37:21.432Z,10.70
2022-08-18T09:48:13.895Z,9.20
2022-08-18T09:53:38.051Z,10.20
2022-08-18T09:58:50.274Z,9.80
2022-08-18T10:04:14.356Z,10.60
2022-08-18T10:09:47.880Z,9.47
2022-08-18T10:15:27.055Z,9.90
2022-08-18T10:20:56.614Z,10.70
2022-08-18T10:26:01.456Z,10.90
2022-08-18T10:31:09.721Z,10.20
2022-08-18T10:42:34.111Z,11.60
2022-08-18T10:47:39.432Z,8.47
2022-08-18T10:53:44.131Z,9.43
2022-08-18T10:59:28.080Z,9.90
2022-08-18T11:04:45.966Z,13.83
2022-08-18T11:10:04.693Z,9.70
2022-08-18T11:15:38.765Z,9.83
2022-08-18T11:26:18.231Z,9.23
2022-08-18T11:36:49.887Z,7.97
2022-08-18T11:41:52.872Z,7.60
2022-08-18T11:47:17.809Z,7.70
2022-08-18T11:57:58.920Z,6.80
2022-08-18T12:03:45.208Z,9.60
2022-08-18T12:09:45.502Z,8.10
2022-08-18T12:15:25.620Z,9.00
2022-08-18T12:20:31.386Z,7.30
2022-08-18T12:25:33.163Z,8.07
2022-08-18T12:30:34.887Z,9.00
2022-08-18T12:35:36.626Z,7.70
2022-08-18T12:40:40.232Z,7.70
2022-08-18T12:45:42.251Z,8.33
2022-08-18T12:50:54.524Z,7.50
2022-08-18T12:56:01.470Z,8.10
2022-08-18T13:01:03.854Z,7.53
2022-08-18T13:06:06.363Z,6.70
2022-08-18T13:11:15.141Z,6.90
2022-08-18T13:16:39.211Z,7.23
2022-08-18T13:21:48.338Z,7.70
2022-08-18T13:26:51.681Z,6.90
2022-08-18T13:31:57.924Z,6.27
2022-08-18T13:36:59.787Z,6.23
2022-08-18T13:42:26.171Z,6.30
2022-08-18T13:47:28.363Z,5.30
2022-08-18T13:52:34.870Z,5.13
2022-08-18T13:57:41.411Z,5.77
2022-08-18T14:02:43.981Z,6.13
2022-08-18T14:07:47.064Z,6.10
2022-08-18T14:12:56.698Z,5.77
2022-08-18T14:17:59.089Z,5.07
2022-08-18T14:23:21.722Z,5.73
2022-08-18T14:28:25.740Z,6.20
2022-08-18T14:33:50.819Z,7.87
2022-08-18T14:38:52.303Z,6.73
2022-08-18T14:44:13.701Z,7.40
2022-08-18T14:49:16.545Z,6.73
2022-08-18T14:54:32.304Z,7.13
2022-08-18T14:59:34.626Z,7.10
2022-08-18T15:04:56.134Z,6.67
2022-08-18T15:10:14.363Z,6.33
2022-08-18T15:15:18.519Z,6.80
2022-08-18T15:20:29.490Z,5.10
2022-08-18T15:25:51.020Z,5.70
2022-08-18T15:36:19.907Z,5.87
2022-08-18T15:41:43.970Z,6.03
2022-08-18T15:46:51.343Z,6.27
2022-08-18T15:51:55.241Z,5.10
2022-08-18T15:56:58.951Z,5.30
2022-08-18T16:02:02.066Z,6.47
2022-08-18T16:07:05.388Z,5.50
2022-08-18T16:12:09.772Z,8.57
2022-08-18T16:17:18.367Z,4.83
2022-08-18T16:22:25.794Z,4.27
2022-08-18T16:27:29.747Z,5.67
2022-08-18T16:32:32.091Z,4.90
2022-08-18T16:37:34.722Z,5.20
2022-08-18T16:42:37.021Z,5.97
2022-08-18T16:47:40.441Z,5.50
2022-08-18T16:52:42.538Z,5.30
2022-08-18T16:58:03.577Z,6.20
2022-08-18T17:03:26.041Z,6.47
2022-08-18T17:08:28.660Z,5.63
2022-08-18T17:13:31.376Z,7.30
2022-08-18T17:18:33.965Z,6.90
2022-08-18T17:23:39.089Z,6.50
2022-08-18T17:28:55.849Z,7.43
2022-08-18T17:34:08.530Z,7.37
2022-08-18T17:39:16.180Z,6.87
2022-08-18T17:44:18.456Z,7.27
2022-08-18T17:49:58.691Z,10.30
2022-08-18T17:55:31.124Z,7.47
2022-08-18T18:00:33.262Z,6.87
2022-08-18T18:05:51.570Z,8.43
2022-08-18T18:11:08.622Z,6.60
2022-08-18T18:16:35.405Z,7.43
2022-08-18T18:22:01.000Z,7.67
2022-08-18T18:27:00.860Z,7.37
2022-08-18T18:32:35.203Z,6.43
2022-08-18T18:37:48.937Z,7.43
2022-08-18T18:42:52.102Z,6.37
2022-08-18T18:48:06.282Z,7.20
2022-08-18T18:53:24.543Z,6.80
2022-08-18T18:58:51.696Z,8.03
2022-08-18T19:04:19.617Z,7.30
2022-08-18T19:09:38.448Z,6.93
2022-08-18T19:14:59.761Z,6.13
2022-08-18T19:20:19.215Z,7.70
2022-08-18T19:25:36.402Z,8.13
2022-08-18T19:30:45.832Z,6.97
2022-08-18T19:36:10.698Z,7.10
2022-08-18T19:41:58.031Z,6.90
2022-08-18T19:47:27.926Z,6.33
2022-08-18T19:53:22.074Z,6.63
2022-08-18T19:59:50.793Z,6.47
2022-08-18T20:05:42.214Z,6.00
2022-08-18T20:11:18.455Z,7.60
2022-08-18T20:16:44.553Z,6.33
2022-08-18T20:22:00.118Z,7.43
2022-08-18T20:27:35.853Z,7.90
2022-08-18T20:32:37.964Z,6.87
2022-08-18T20:37:42.441Z,7.00
2022-08-18T20:42:47.659Z,6.90
2022-08-18T20:48:52.704Z,6.37
2022-08-18T20:54:39.844Z,7.07
2022-08-18T21:00:26.701Z,7.40
2022-08-18T21:05:39.082Z,7.10
2022-08-18T21:11:30.922Z,7.80
2022-08-18T21:16:45.124Z,7.20
2022-08-18T21:21:57.267Z,8.13
2022-08-18T21:27:21.494Z,9.30
2022-08-18T21:32:37.147Z,8.33
2022-08-18T21:37:41.465Z,8.40
2022-08-18T21:42:45.806Z,10.73
2022-08-18T21:47:56.643Z,9.50
2022-08-18T21:53:23.646Z,8.53
2022-08-18T21:58:42.463Z,10.03
2022-08-18T22:04:04.092Z,10.17
2022-08-18T22:09:30.226Z,8.90
2022-08-18T22:14:54.514Z,8.40
2022-08-18T22:20:46.434Z,8.00
2022-08-18T22:25:48.947Z,9.63
2022-08-18T22:30:50.758Z,7.10
2022-08-18T22:35:56.870Z,8.10
2022-08-18T22:41:00.007Z,8.07
2022-08-18T22:46:01.875Z,7.73
2022-08-18T22:51:05.419Z,7.93
2022-08-18T22:56:07.359Z,7.90
2022-08-18T23:01:10.722Z,7.03
2022-08-18T23:06:12.445Z,7.83
2022-08-18T23:11:14.340Z,7.50
2022-08-18T23:16:30.922Z,7.53
2022-08-18T23:21:35.785Z,6.93
2022-08-18T23:26:38.477Z,7.33
2022-08-18T23:31:44.820Z,7.33
2022-08-18T23:36:55.839Z,6.60
2022-08-18T23:41:58.433Z,6.90
2022-08-18T23:47:01.915Z,8.03
2022-08-18T23:52:05.657Z,8.77
2022-08-18T23:57:07.493Z,7.73
